sensor_id;sensor_type;location;lat;lon;timestamp;P1;durP1;ratioP1;P2;durP2;ratioP2
22525;SDS011;11429;50.842;4.386;2022-09-09T00:01:23;4.95;;;1.60;;
22525;SDS011;11429;50.842;4.386;2022-09-09T00:04:33;6.13;;;1.85;;
22525;SDS011;11429;50.842;4.386;2022-09-09T00:12:53;4.63;;;1.65;;
22525;SDS011;11429;50.842;4.386;2022-09-09T00:15:11;4.55;;;1.52;;
22525;SDS011;11429;50.842;4.386;2022-09-09T00:17:48;6.00;;;1.27;;
22525;SDS011;11429;50.842;4.386;2022-09-09T00:23:12;3.70;;;1.30;;
22525;SDS011;11429;50.842;4.386;2022-09-09T00:28:39;6.43;;;1.67;;
22525;SDS011;11429;50.842;4.386;2022-09-09T00:31:14;6.82;;;1.30;;
22525;SDS011;11429;50.842;4.386;2022-09-09T00:33:43;4.05;;;1.05;;
22525;SDS011;11429;50.842;4.386;2022-09-09T00:36:12;5.35;;;1.35;;
22525;SDS011;11429;50.842;4.386;2022-09-09T00:38:45;4.07;;;1.20;;
22525;SDS011;11429;50.842;4.386;2022-09-09T00:41:17;3.65;;;1.10;;
22525;SDS011;11429;50.842;4.386;2022-09-09T00:46:41;3.72;;;1.25;;
22525;SDS011;11429;50.842;4.386;2022-09-09T00:49:31;6.63;;;1.30;;
22525;SDS011;11429;50.842;4.386;2022-09-09T00:57:36;2.17;;;0.85;;
22525;SDS011;11429;50.842;4.386;2022-09-09T01:05:51;6.22;;;1.35;;
22525;SDS011;11429;50.842;4.386;2022-09-09T01:08:39;5.72;;;0.98;;
22525;SDS011;11429;50.842;4.386;2022-09-09T01:11:43;9.05;;;1.40;;
22525;SDS011;11429;50.842;4.386;2022-09-09T01:16:58;2.92;;;1.42;;
22525;SDS011;11429;50.842;4.386;2022-09-09T01:19:40;4.35;;;0.98;;
22525;SDS011;11429;50.842;4.386;2022-09-09T01:27:53;7.65;;;1.65;;
22525;SDS011;11429;50.842;4.386;2022-09-09T01:30:21;5.63;;;1.23;;
22525;SDS011;11429;50.842;4.386;2022-09-09T01:32:53;4.07;;;1.20;;
22525;SDS011;11429;50.842;4.386;2022-09-09T01:35:36;6.53;;;1.27;;
22525;SDS011;11429;50.842;4.386;2022-09-09T01:38:09;5.72;;;1.38;;
22525;SDS011;11429;50.842;4.386;2022-09-09T01:40:35;6.85;;;1.55;;
22525;SDS011;11429;50.842;4.386;2022-09-09T01:43:01;5.88;;;1.13;;
22525;SDS011;11429;50.842;4.386;2022-09-09T01:45:28;7.18;;;1.50;;
22525;SDS011;11429;50.842;4.386;2022-09-09T01:47:54;6.32;;;1.30;;
22525;SDS011;11429;50.842;4.386;2022-09-09T01:50:21;4.75;;;1.50;;
22525;SDS011;11429;50.842;4.386;2022-09-09T01:52:49;6.50;;;1.73;;
22525;SDS011;11429;50.842;4.386;2022-09-09T01:55:23;7.18;;;1.90;;
22525;SDS011;11429;50.842;4.386;2022-09-09T02:01:30;6.65;;;1.75;;
22525;SDS011;11429;50.842;4.386;2022-09-09T02:03:52;9.57;;;1.70;;
22525;SDS011;11429;50.842;4.386;2022-09-09T02:08:47;9.00;;;2.00;;
22525;SDS011;11429;50.842;4.386;2022-09-09T02:11:16;6.72;;;2.08;;
22525;SDS011;11429;50.842;4.386;2022-09-09T02:13:43;8.70;;;2.33;;
22525;SDS011;11429;50.842;4.386;2022-09-09T02:16:16;13.95;;;2.28;;
22525;SDS011;11429;50.842;4.386;2022-09-09T02:21:32;7.28;;;2.13;;
22525;SDS011;11429;50.842;4.386;2022-09-09T02:24:02;9.23;;;1.90;;
22525;SDS011;11429;50.842;4.386;2022-09-09T02:26:34;7.05;;;1.60;;
22525;SDS011;11429;50.842;4.386;2022-09-09T02:29:05;9.73;;;1.88;;
22525;SDS011;11429;50.842;4.386;2022-09-09T02:31:35;8.40;;;1.60;;
22525;SDS011;11429;50.842;4.386;2022-09-09T02:34:03;9.30;;;2.60;;
22525;SDS011;11429;50.842;4.386;2022-09-09T02:36:31;7.53;;;1.45;;
22525;SDS011;11429;50.842;4.386;2022-09-09T02:38:59;10.57;;;2.20;;
22525;SDS011;11429;50.842;4.386;2022-09-09T02:41:30;10.18;;;2.15;;
22525;SDS011;11429;50.842;4.386;2022-09-09T02:43:59;9.30;;;1.80;;
22525;SDS011;11429;50.842;4.386;2022-09-09T02:49:17;7.40;;;1.73;;
22525;SDS011;11429;50.842;4.386;2022-09-09T02:52:06;11.27;;;2.08;;
22525;SDS011;11429;50.842;4.386;2022-09-09T02:54:34;10.23;;;2.00;;
22525;SDS011;11429;50.842;4.386;2022-09-09T02:59:48;6.72;;;1.90;;
22525;SDS011;11429;50.842;4.386;2022-09-09T03:02:17;7.00;;;1.83;;
22525;SDS011;11429;50.842;4.386;2022-09-09T03:04:43;11.23;;;2.05;;
22525;SDS011;11429;50.842;4.386;2022-09-09T03:07:15;5.90;;;1.65;;
22525;SDS011;11429;50.842;4.386;2022-09-09T03:09:42;7.75;;;1.95;;
22525;SDS011;11429;50.842;4.386;2022-09-09T03:12:07;7.78;;;2.00;;
22525;SDS011;11429;50.842;4.386;2022-09-09T03:14:35;10.85;;;2.05;;
22525;SDS011;11429;50.842;4.386;2022-09-09T03:17:00;11.07;;;2.03;;
22525;SDS011;11429;50.842;4.386;2022-09-09T03:19:27;7.55;;;2.28;;
22525;SDS011;11429;50.842;4.386;2022-09-09T03:21:53;9.48;;;2.20;;
22525;SDS011;11429;50.842;4.386;2022-09-09T03:24:19;8.20;;;2.42;;
22525;SDS011;11429;50.842;4.386;2022-09-09T03:26:45;7.85;;;1.85;;
22525;SDS011;11429;50.842;4.386;2022-09-09T03:29:11;8.55;;;2.00;;
22525;SDS011;11429;50.842;4.386;2022-09-09T03:31:39;13.13;;;2.13;;
22525;SDS011;11429;50.842;4.386;2022-09-09T03:34:05;8.40;;;1.98;;
22525;SDS011;11429;50.842;4.386;2022-09-09T03:36:31;11.23;;;2.22;;
22525;SDS011;11429;50.842;4.386;2022-09-09T03:38:57;10.90;;;2.00;;
22525;SDS011;11429;50.842;4.386;2022-09-09T03:41:24;8.85;;;1.80;;
22525;SDS011;11429;50.842;4.386;2022-09-09T03:43:50;7.75;;;1.90;;
22525;SDS011;11429;50.842;4.386;2022-09-09T03:46:16;9.07;;;2.47;;
22525;SDS011;11429;50.842;4.386;2022-09-09T03:48:43;14.40;;;2.85;;
22525;SDS011;11429;50.842;4.386;2022-09-09T03:51:09;8.48;;;2.20;;
22525;SDS011;11429;50.842;4.386;2022-09-09T03:53:35;10.32;;;2.47;;
22525;SDS011;11429;50.842;4.386;2022-09-09T03:56:03;10.93;;;2.35;;
22525;SDS011;11429;50.842;4.386;2022-09-09T03:58:31;7.47;;;1.70;;
22525;SDS011;11429;50.842;4.386;2022-09-09T04:01:05;10.20;;;2.17;;
22525;SDS011;11429;50.842;4.386;2022-09-09T04:03:36;9.32;;;2.20;;
22525;SDS011;11429;50.842;4.386;2022-09-09T04:06:03;6.30;;;1.98;;
22525;SDS011;11429;50.842;4.386;2022-09-09T04:08:31;9.57;;;2.50;;
22525;SDS011;11429;50.842;4.386;2022-09-09T04:10:57;11.30;;;2.78;;
22525;SDS011;11429;50.842;4.386;2022-09-09T04:13:23;12.43;;;2.35;;
22525;SDS011;11429;50.842;4.386;2022-09-09T04:15:58;12.85;;;2.22;;
22525;SDS011;11429;50.842;4.386;2022-09-09T04:18:25;9.57;;;2.47;;
22525;SDS011;11429;50.842;4.386;2022-09-09T04:20:53;12.00;;;2.10;;
22525;SDS011;11429;50.842;4.386;2022-09-09T04:23:20;8.50;;;1.90;;
22525;SDS011;11429;50.842;4.386;2022-09-09T04:25:49;10.23;;;2.50;;
22525;SDS011;11429;50.842;4.386;2022-09-09T04:28:16;10.70;;;2.42;;
22525;SDS011;11429;50.842;4.386;2022-09-09T04:30:43;10.68;;;2.45;;
22525;SDS011;11429;50.842;4.386;2022-09-09T04:33:10;10.48;;;2.45;;
22525;SDS011;11429;50.842;4.386;2022-09-09T04:35:37;11.68;;;2.15;;
22525;SDS011;11429;50.842;4.386;2022-09-09T04:38:04;8.32;;;2.53;;
22525;SDS011;11429;50.842;4.386;2022-09-09T04:40:31;8.63;;;2.60;;
22525;SDS011;11429;50.842;4.386;2022-09-09T04:43:00;13.32;;;2.33;;
22525;SDS011;11429;50.842;4.386;2022-09-09T04:45:28;10.68;;;3.17;;
22525;SDS011;11429;50.842;4.386;2022-09-09T04:47:53;15.60;;;2.88;;
22525;SDS011;11429;50.842;4.386;2022-09-09T04:50:20;12.05;;;2.80;;
22525;SDS011;11429;50.842;4.386;2022-09-09T04:52:46;12.23;;;2.35;;
22525;SDS011;11429;50.842;4.386;2022-09-09T04:55:11;9.48;;;2.40;;
22525;SDS011;11429;50.842;4.386;2022-09-09T04:57:38;9.25;;;2.90;;
22525;SDS011;11429;50.842;4.386;2022-09-09T05:00:04;10.90;;;2.55;;
22525;SDS011;11429;50.842;4.386;2022-09-09T05:02:31;14.52;;;2.88;;
22525;SDS011;11429;50.842;4.386;2022-09-09T05:04:57;9.02;;;2.67;;
22525;SDS011;11429;50.842;4.386;2022-09-09T05:07:23;11.13;;;2.55;;
22525;SDS011;11429;50.842;4.386;2022-09-09T05:09:49;10.63;;;2.65;;
22525;SDS011;11429;50.842;4.386;2022-09-09T05:12:15;11.30;;;2.75;;
22525;SDS011;11429;50.842;4.386;2022-09-09T05:14:42;10.20;;;2.92;;
22525;SDS011;11429;50.842;4.386;2022-09-09T05:17:08;11.43;;;2.67;;
22525;SDS011;11429;50.842;4.386;2022-09-09T05:19:34;10.55;;;2.25;;
22525;SDS011;11429;50.842;4.386;2022-09-09T05:22:00;9.73;;;2.95;;
22525;SDS011;11429;50.842;4.386;2022-09-09T05:24:28;12.18;;;2.90;;
22525;SDS011;11429;50.842;4.386;2022-09-09T05:26:54;11.90;;;2.83;;
22525;SDS011;11429;50.842;4.386;2022-09-09T05:29:23;12.13;;;2.58;;
22525;SDS011;11429;50.842;4.386;2022-09-09T05:31:48;14.05;;;2.42;;
22525;SDS011;11429;50.842;4.386;2022-09-09T05:34:14;10.38;;;2.58;;
22525;SDS011;11429;50.842;4.386;2022-09-09T05:36:40;16.08;;;2.80;;
22525;SDS011;11429;50.842;4.386;2022-09-09T05:39:05;17.35;;;3.22;;
22525;SDS011;11429;50.842;4.386;2022-09-09T05:41:31;9.85;;;2.35;;
22525;SDS011;11429;50.842;4.386;2022-09-09T05:43:57;11.00;;;2.65;;
22525;SDS011;11429;50.842;4.386;2022-09-09T05:46:26;10.23;;;2.30;;
22525;SDS011;11429;50.842;4.386;2022-09-09T05:48:52;12.65;;;3.28;;
22525;SDS011;11429;50.842;4.386;2022-09-09T05:51:19;9.82;;;2.55;;
22525;SDS011;11429;50.842;4.386;2022-09-09T05:53:47;9.52;;;2.72;;
22525;SDS011;11429;50.842;4.386;2022-09-09T05:56:14;11.35;;;2.60;;
22525;SDS011;11429;50.842;4.386;2022-09-09T05:58:50;11.10;;;2.90;;
22525;SDS011;11429;50.842;4.386;2022-09-09T06:01:19;10.80;;;2.58;;
22525;SDS011;11429;50.842;4.386;2022-09-09T06:03:50;15.70;;;2.38;;
22525;SDS011;11429;50.842;4.386;2022-09-09T06:06:17;13.63;;;2.40;;
22525;SDS011;11429;50.842;4.386;2022-09-09T06:08:48;11.65;;;3.17;;
22525;SDS011;11429;50.842;4.386;2022-09-09T06:11:17;11.38;;;2.33;;
22525;SDS011;11429;50.842;4.386;2022-09-09T06:13:47;11.98;;;2.40;;
22525;SDS011;11429;50.842;4.386;2022-09-09T06:16:16;11.55;;;2.40;;
22525;SDS011;11429;50.842;4.386;2022-09-09T06:18:44;12.02;;;2.85;;
22525;SDS011;11429;50.842;4.386;2022-09-09T06:21:15;15.75;;;2.78;;
22525;SDS011;11429;50.842;4.386;2022-09-09T06:23:42;9.98;;;2.10;;
22525;SDS011;11429;50.842;4.386;2022-09-09T06:26:14;7.90;;;1.88;;
22525;SDS011;11429;50.842;4.386;2022-09-09T06:31:11;9.95;;;2.03;;
22525;SDS011;11429;50.842;4.386;2022-09-09T06:33:39;9.02;;;2.47;;
22525;SDS011;11429;50.842;4.386;2022-09-09T06:36:16;12.07;;;2.88;;
22525;SDS011;11429;50.842;4.386;2022-09-09T06:38:44;12.35;;;2.63;;
22525;SDS011;11429;50.842;4.386;2022-09-09T06:41:11;10.48;;;2.28;;
22525;SDS011;11429;50.842;4.386;2022-09-09T06:43:38;10.85;;;2.13;;
22525;SDS011;11429;50.842;4.386;2022-09-09T06:46:12;11.00;;;2.58;;
22525;SDS011;11429;50.842;4.386;2022-09-09T06:48:40;10.38;;;2.55;;
22525;SDS011;11429;50.842;4.386;2022-09-09T06:51:16;14.27;;;3.45;;
22525;SDS011;11429;50.842;4.386;2022-09-09T06:53:45;10.90;;;2.67;;
22525;SDS011;11429;50.842;4.386;2022-09-09T06:58:44;12.15;;;2.00;;
22525;SDS011;11429;50.842;4.386;2022-09-09T07:01:11;9.27;;;2.20;;
22525;SDS011;11429;50.842;4.386;2022-09-09T07:03:39;11.10;;;2.30;;
22525;SDS011;11429;50.842;4.386;2022-09-09T07:06:05;12.70;;;2.95;;
22525;SDS011;11429;50.842;4.386;2022-09-09T07:08:32;9.68;;;2.03;;
22525;SDS011;11429;50.842;4.386;2022-09-09T07:11:02;6.60;;;1.88;;
22525;SDS011;11429;50.842;4.386;2022-09-09T07:13:29;11.80;;;2.47;;
22525;SDS011;11429;50.842;4.386;2022-09-09T07:16:02;7.10;;;1.83;;
22525;SDS011;11429;50.842;4.386;2022-09-09T07:18:36;7.97;;;1.85;;
22525;SDS011;11429;50.842;4.386;2022-09-09T07:21:02;8.30;;;1.92;;
22525;SDS011;11429;50.842;4.386;2022-09-09T07:23:29;11.20;;;2.17;;
22525;SDS011;11429;50.842;4.386;2022-09-09T07:25:56;9.65;;;2.00;;
22525;SDS011;11429;50.842;4.386;2022-09-09T07:28:23;9.00;;;2.38;;
22525;SDS011;11429;50.842;4.386;2022-09-09T07:30:55;8.82;;;2.00;;
22525;SDS011;11429;50.842;4.386;2022-09-09T07:33:23;11.23;;;2.33;;
22525;SDS011;11429;50.842;4.386;2022-09-09T07:35:49;11.88;;;2.67;;
22525;SDS011;11429;50.842;4.386;2022-09-09T07:38:15;11.02;;;2.40;;
22525;SDS011;11429;50.842;4.386;2022-09-09T07:40:41;10.32;;;2.50;;
22525;SDS011;11429;50.842;4.386;2022-09-09T07:43:07;10.30;;;2.05;;
22525;SDS011;11429;50.842;4.386;2022-09-09T07:45:33;9.07;;;1.80;;
22525;SDS011;11429;50.842;4.386;2022-09-09T07:48:00;9.57;;;2.40;;
22525;SDS011;11429;50.842;4.386;2022-09-09T07:50:26;7.15;;;2.38;;
22525;SDS011;11429;50.842;4.386;2022-09-09T07:52:52;8.10;;;2.30;;
22525;SDS011;11429;50.842;4.386;2022-09-09T07:55:19;8.27;;;1.92;;
22525;SDS011;11429;50.842;4.386;2022-09-09T07:57:52;11.15;;;2.35;;
22525;SDS011;11429;50.842;4.386;2022-09-09T08:00:18;9.30;;;2.50;;
22525;SDS011;11429;50.842;4.386;2022-09-09T08:02:45;9.90;;;2.63;;
22525;SDS011;11429;50.842;4.386;2022-09-09T08:05:11;8.90;;;2.55;;
22525;SDS011;11429;50.842;4.386;2022-09-09T08:07:38;9.85;;;2.05;;
22525;SDS011;11429;50.842;4.386;2022-09-09T08:10:04;8.20;;;2.47;;
22525;SDS011;11429;50.842;4.386;2022-09-09T08:12:32;10.55;;;2.17;;
22525;SDS011;11429;50.842;4.386;2022-09-09T08:14:58;9.07;;;1.92;;
22525;SDS011;11429;50.842;4.386;2022-09-09T08:17:23;8.02;;;2.08;;
22525;SDS011;11429;50.842;4.386;2022-09-09T08:19:50;10.30;;;2.40;;
22525;SDS011;11429;50.842;4.386;2022-09-09T08:22:16;13.20;;;2.40;;
22525;SDS011;11429;50.842;4.386;2022-09-09T08:24:41;6.15;;;1.88;;
22525;SDS011;11429;50.842;4.386;2022-09-09T08:27:07;9.30;;;2.70;;
22525;SDS011;11429;50.842;4.386;2022-09-09T08:29:34;7.88;;;2.08;;
22525;SDS011;11429;50.842;4.386;2022-09-09T08:32:02;10.90;;;2.45;;
22525;SDS011;11429;50.842;4.386;2022-09-09T08:34:28;11.18;;;2.15;;
22525;SDS011;11429;50.842;4.386;2022-09-09T08:36:55;9.52;;;2.00;;
22525;SDS011;11429;50.842;4.386;2022-09-09T08:39:21;6.90;;;2.17;;
22525;SDS011;11429;50.842;4.386;2022-09-09T08:44:42;13.05;;;2.65;;
22525;SDS011;11429;50.842;4.386;2022-09-09T08:53:21;6.38;;;2.35;;
22525;SDS011;11429;50.842;4.386;2022-09-09T08:55:51;7.97;;;2.67;;
22525;SDS011;11429;50.842;4.386;2022-09-09T08:58:33;16.17;;;2.58;;
22525;SDS011;11429;50.842;4.386;2022-09-09T09:09:17;12.02;;;2.78;;
22525;SDS011;11429;50.842;4.386;2022-09-09T09:14:23;11.30;;;2.85;;
22525;SDS011;11429;50.842;4.386;2022-09-09T09:17:32;9.35;;;2.53;;
22525;SDS011;11429;50.842;4.386;2022-09-09T09:19:39;11.30;;;3.03;;
22525;SDS011;11429;50.842;4.386;2022-09-09T09:30:18;11.75;;;4.53;;
22525;SDS011;11429;50.842;4.386;2022-09-09T09:33:32;11.68;;;3.22;;
22525;SDS011;11429;50.842;4.386;2022-09-09T09:35:53;9.52;;;2.55;;
22525;SDS011;11429;50.842;4.386;2022-09-09T09:38:19;8.07;;;2.90;;
22525;SDS011;11429;50.842;4.386;2022-09-09T09:40:57;8.60;;;2.38;;
22525;SDS011;11429;50.842;4.386;2022-09-09T09:43:27;9.45;;;2.70;;
22525;SDS011;11429;50.842;4.386;2022-09-09T09:46:02;13.73;;;3.13;;
22525;SDS011;11429;50.842;4.386;2022-09-09T09:48:29;9.70;;;2.88;;
22525;SDS011;11429;50.842;4.386;2022-09-09T09:50:59;8.05;;;2.88;;
22525;SDS011;11429;50.842;4.386;2022-09-09T09:55:59;12.57;;;2.83;;
22525;SDS011;11429;50.842;4.386;2022-09-09T09:58:26;7.28;;;2.33;;
22525;SDS011;11429;50.842;4.386;2022-09-09T10:00:57;11.05;;;2.60;;
22525;SDS011;11429;50.842;4.386;2022-09-09T10:03:29;9.07;;;2.60;;
22525;SDS011;11429;50.842;4.386;2022-09-09T10:05:56;7.32;;;1.92;;
22525;SDS011;11429;50.842;4.386;2022-09-09T10:08:25;9.93;;;2.85;;
22525;SDS011;11429;50.842;4.386;2022-09-09T10:24:18;8.57;;;2.53;;
22525;SDS011;11429;50.842;4.386;2022-09-09T10:29:29;9.60;;;3.03;;
22525;SDS011;11429;50.842;4.386;2022-09-09T10:32:22;10.18;;;2.85;;
22525;SDS011;11429;50.842;4.386;2022-09-09T10:35:24;8.00;;;2.35;;
22525;SDS011;11429;50.842;4.386;2022-09-09T10:48:42;7.95;;;2.50;;
22525;SDS011;11429;50.842;4.386;2022-09-09T10:53:53;10.52;;;2.53;;
22525;SDS011;11429;50.842;4.386;2022-09-09T10:56:23;8.77;;;2.88;;
22525;SDS011;11429;50.842;4.386;2022-09-09T10:59:05;9.00;;;2.30;;
22525;SDS011;11429;50.842;4.386;2022-09-09T11:04:31;9.27;;;2.20;;
22525;SDS011;11429;50.842;4.386;2022-09-09T11:07:00;9.88;;;2.58;;
22525;SDS011;11429;50.842;4.386;2022-09-09T11:09:33;12.65;;;2.95;;
22525;SDS011;11429;50.842;4.386;2022-09-09T11:12:04;7.65;;;2.05;;
22525;SDS011;11429;50.842;4.386;2022-09-09T11:14:41;6.55;;;2.30;;
22525;SDS011;11429;50.842;4.386;2022-09-09T11:17:11;6.13;;;2.15;;
22525;SDS011;11429;50.842;4.386;2022-09-09T11:20:02;10.07;;;2.65;;
22525;SDS011;11429;50.842;4.386;2022-09-09T11:22:34;7.95;;;2.53;;
22525;SDS011;11429;50.842;4.386;2022-09-09T11:25:13;7.53;;;3.22;;
22525;SDS011;11429;50.842;4.386;2022-09-09T11:27:44;8.63;;;2.50;;
22525;SDS011;11429;50.842;4.386;2022-09-09T11:30:31;14.40;;;4.90;;
22525;SDS011;11429;50.842;4.386;2022-09-09T11:33:56;7.75;;;2.45;;
22525;SDS011;11429;50.842;4.386;2022-09-09T11:38:52;8.05;;;2.15;;
22525;SDS011;11429;50.842;4.386;2022-09-09T11:41:32;8.68;;;2.17;;
22525;SDS011;11429;50.842;4.386;2022-09-09T11:44:09;7.00;;;2.15;;
22525;SDS011;11429;50.842;4.386;2022-09-09T11:46:46;7.68;;;1.77;;
22525;SDS011;11429;50.842;4.386;2022-09-09T11:49:26;12.18;;;2.47;;
22525;SDS011;11429;50.842;4.386;2022-09-09T11:54:49;5.32;;;1.65;;
22525;SDS011;11429;50.842;4.386;2022-09-09T11:57:25;7.72;;;1.77;;
22525;SDS011;11429;50.842;4.386;2022-09-09T11:59:57;5.75;;;1.45;;
22525;SDS011;11429;50.842;4.386;2022-09-09T12:02:25;8.13;;;1.63;;
22525;SDS011;11429;50.842;4.386;2022-09-09T12:07:41;10.20;;;2.35;;
22525;SDS011;11429;50.842;4.386;2022-09-09T12:10:30;12.10;;;1.90;;
22525;SDS011;11429;50.842;4.386;2022-09-09T12:13:34;7.85;;;1.77;;
22525;SDS011;11429;50.842;4.386;2022-09-09T12:15:53;6.57;;;1.75;;
22525;SDS011;11429;50.842;4.386;2022-09-09T12:18:24;10.48;;;1.95;;
22525;SDS011;11429;50.842;4.386;2022-09-09T12:23:30;8.68;;;2.15;;
22525;SDS011;11429;50.842;4.386;2022-09-09T12:36:55;6.70;;;1.77;;
22525;SDS011;11429;50.842;4.386;2022-09-09T12:39:28;6.28;;;2.20;;
22525;SDS011;11429;50.842;4.386;2022-09-09T12:42:00;7.20;;;2.08;;
22525;SDS011;11429;50.842;4.386;2022-09-09T12:44:28;7.80;;;1.98;;
22525;SDS011;11429;50.842;4.386;2022-09-09T12:46:56;6.88;;;1.75;;
22525;SDS011;11429;50.842;4.386;2022-09-09T12:49:30;7.70;;;1.58;;
22525;SDS011;11429;50.842;4.386;2022-09-09T12:52:07;5.63;;;1.67;;
22525;SDS011;11429;50.842;4.386;2022-09-09T12:54:55;5.43;;;1.83;;
22525;SDS011;11429;50.842;4.386;2022-09-09T12:57:22;7.38;;;1.40;;
22525;SDS011;11429;50.842;4.386;2022-09-09T12:59:50;6.45;;;1.35;;
22525;SDS011;11429;50.842;4.386;2022-09-09T13:02:23;5.80;;;1.30;;
22525;SDS011;11429;50.842;4.386;2022-09-09T13:04:51;7.40;;;1.48;;
22525;SDS011;11429;50.842;4.386;2022-09-09T13:07:19;6.10;;;1.63;;
22525;SDS011;11429;50.842;4.386;2022-09-09T13:09:46;5.15;;;1.30;;
22525;SDS011;11429;50.842;4.386;2022-09-09T13:12:18;5.47;;;1.23;;
22525;SDS011;11429;50.842;4.386;2022-09-09T13:14:55;6.10;;;1.80;;
22525;SDS011;11429;50.842;4.386;2022-09-09T13:17:22;4.43;;;1.30;;
22525;SDS011;11429;50.842;4.386;2022-09-09T13:19:50;5.72;;;1.50;;
22525;SDS011;11429;50.842;4.386;2022-09-09T13:25:38;4.90;;;1.33;;
22525;SDS011;11429;50.842;4.386;2022-09-09T13:30:23;7.47;;;2.00;;
22525;SDS011;11429;50.842;4.386;2022-09-09T13:33:04;4.93;;;1.40;;
22525;SDS011;11429;50.842;4.386;2022-09-09T13:35:30;6.63;;;1.92;;
22525;SDS011;11429;50.842;4.386;2022-09-09T13:37:57;4.25;;;1.40;;
22525;SDS011;11429;50.842;4.386;2022-09-09T13:40:25;5.88;;;1.50;;
22525;SDS011;11429;50.842;4.386;2022-09-09T13:42:52;6.45;;;1.75;;
22525;SDS011;11429;50.842;4.386;2022-09-09T13:45:22;3.67;;;1.40;;
22525;SDS011;11429;50.842;4.386;2022-09-09T13:47:51;4.53;;;1.20;;
22525;SDS011;11429;50.842;4.386;2022-09-09T13:52:54;3.30;;;1.13;;
22525;SDS011;11429;50.842;4.386;2022-09-09T13:55:23;3.97;;;1.30;;
22525;SDS011;11429;50.842;4.386;2022-09-09T13:57:53;5.57;;;1.38;;
22525;SDS011;11429;50.842;4.386;2022-09-09T14:00:22;4.15;;;1.23;;
22525;SDS011;11429;50.842;4.386;2022-09-09T14:02:51;4.60;;;1.23;;
22525;SDS011;11429;50.842;4.386;2022-09-09T14:05:19;5.32;;;1.85;;
22525;SDS011;11429;50.842;4.386;2022-09-09T14:07:47;6.70;;;1.48;;
22525;SDS011;11429;50.842;4.386;2022-09-09T14:10:13;3.72;;;1.40;;
22525;SDS011;11429;50.842;4.386;2022-09-09T14:12:39;9.10;;;1.85;;
22525;SDS011;11429;50.842;4.386;2022-09-09T14:15:05;6.40;;;1.27;;
22525;SDS011;11429;50.842;4.386;2022-09-09T14:17:32;4.45;;;1.75;;
22525;SDS011;11429;50.842;4.386;2022-09-09T14:20:01;4.70;;;1.60;;
22525;SDS011;11429;50.842;4.386;2022-09-09T14:22:32;3.60;;;1.58;;
22525;SDS011;11429;50.842;4.386;2022-09-09T14:24:59;5.95;;;1.25;;
22525;SDS011;11429;50.842;4.386;2022-09-09T14:27:24;5.43;;;1.55;;
22525;SDS011;11429;50.842;4.386;2022-09-09T14:29:55;6.13;;;1.38;;
22525;SDS011;11429;50.842;4.386;2022-09-09T14:32:21;6.75;;;1.67;;
22525;SDS011;11429;50.842;4.386;2022-09-09T14:34:46;5.05;;;1.65;;
22525;SDS011;11429;50.842;4.386;2022-09-09T14:37:15;6.55;;;1.75;;
22525;SDS011;11429;50.842;4.386;2022-09-09T14:39:41;4.45;;;1.52;;
22525;SDS011;11429;50.842;4.386;2022-09-09T14:42:09;7.00;;;1.60;;
22525;SDS011;11429;50.842;4.386;2022-09-09T14:44:38;6.13;;;1.73;;
22525;SDS011;11429;50.842;4.386;2022-09-09T14:47:04;4.57;;;1.60;;
22525;SDS011;11429;50.842;4.386;2022-09-09T14:49:30;7.40;;;1.98;;
22525;SDS011;11429;50.842;4.386;2022-09-09T14:51:56;3.17;;;1.17;;
22525;SDS011;11429;50.842;4.386;2022-09-09T14:54:22;8.93;;;1.90;;
22525;SDS011;11429;50.842;4.386;2022-09-09T14:56:48;6.65;;;1.15;;
22525;SDS011;11429;50.842;4.386;2022-09-09T14:59:14;6.95;;;1.50;;
22525;SDS011;11429;50.842;4.386;2022-09-09T15:01:39;5.53;;;1.48;;
22525;SDS011;11429;50.842;4.386;2022-09-09T15:04:05;5.07;;;1.27;;
22525;SDS011;11429;50.842;4.386;2022-09-09T15:06:33;6.13;;;1.75;;
22525;SDS011;11429;50.842;4.386;2022-09-09T15:09:00;4.07;;;1.15;;
22525;SDS011;11429;50.842;4.386;2022-09-09T15:11:27;6.13;;;1.42;;
22525;SDS011;11429;50.842;4.386;2022-09-09T15:14:02;11.02;;;2.80;;
22525;SDS011;11429;50.842;4.386;2022-09-09T15:16:32;6.28;;;1.60;;
22525;SDS011;11429;50.842;4.386;2022-09-09T15:18:59;5.22;;;1.48;;
22525;SDS011;11429;50.842;4.386;2022-09-09T15:21:27;4.03;;;1.55;;
22525;SDS011;11429;50.842;4.386;2022-09-09T15:23:55;3.85;;;1.20;;
22525;SDS011;11429;50.842;4.386;2022-09-09T15:26:21;5.65;;;1.92;;
22525;SDS011;11429;50.842;4.386;2022-09-09T15:28:48;3.17;;;1.30;;
22525;SDS011;11429;50.842;4.386;2022-09-09T15:31:25;8.40;;;1.50;;
22525;SDS011;11429;50.842;4.386;2022-09-09T15:34:11;5.38;;;1.52;;
22525;SDS011;11429;50.842;4.386;2022-09-09T15:39:08;5.55;;;1.52;;
22525;SDS011;11429;50.842;4.386;2022-09-09T15:41:37;5.15;;;1.77;;
22525;SDS011;11429;50.842;4.386;2022-09-09T15:44:04;6.57;;;1.48;;
22525;SDS011;11429;50.842;4.386;2022-09-09T15:46:31;4.57;;;1.52;;
22525;SDS011;11429;50.842;4.386;2022-09-09T15:49:12;7.72;;;1.60;;
22525;SDS011;11429;50.842;4.386;2022-09-09T15:51:44;5.05;;;1.73;;
22525;SDS011;11429;50.842;4.386;2022-09-09T15:54:12;6.68;;;1.30;;
22525;SDS011;11429;50.842;4.386;2022-09-09T15:56:43;5.50;;;1.58;;
22525;SDS011;11429;50.842;4.386;2022-09-09T15:59:10;8.45;;;1.55;;
22525;SDS011;11429;50.842;4.386;2022-09-09T16:01:36;4.00;;;1.55;;
22525;SDS011;11429;50.842;4.386;2022-09-09T16:04:04;5.25;;;1.55;;
22525;SDS011;11429;50.842;4.386;2022-09-09T16:06:30;7.03;;;1.90;;
22525;SDS011;11429;50.842;4.386;2022-09-09T16:08:57;10.40;;;1.77;;
22525;SDS011;11429;50.842;4.386;2022-09-09T16:11:29;7.00;;;1.90;;
22525;SDS011;11429;50.842;4.386;2022-09-09T16:13:56;7.63;;;1.65;;
22525;SDS011;11429;50.842;4.386;2022-09-09T16:16:23;6.13;;;1.50;;
22525;SDS011;11429;50.842;4.386;2022-09-09T16:18:51;6.82;;;1.77;;
22525;SDS011;11429;50.842;4.386;2022-09-09T16:21:23;7.32;;;1.77;;
22525;SDS011;11429;50.842;4.386;2022-09-09T16:26:20;8.05;;;2.00;;
22525;SDS011;11429;50.842;4.386;2022-09-09T16:28:46;7.80;;;1.85;;
22525;SDS011;11429;50.842;4.386;2022-09-09T16:31:14;6.10;;;2.30;;
22525;SDS011;11429;50.842;4.386;2022-09-09T16:33:42;5.53;;;1.50;;
22525;SDS011;11429;50.842;4.386;2022-09-09T16:36:14;3.20;;;1.23;;
22525;SDS011;11429;50.842;4.386;2022-09-09T16:38:41;3.78;;;1.50;;
22525;SDS011;11429;50.842;4.386;2022-09-09T16:41:08;4.70;;;1.73;;
22525;SDS011;11429;50.842;4.386;2022-09-09T16:43:36;3.47;;;1.50;;
22525;SDS011;11429;50.842;4.386;2022-09-09T16:46:15;5.10;;;1.63;;
22525;SDS011;11429;50.842;4.386;2022-09-09T16:48:43;3.35;;;1.30;;
22525;SDS011;11429;50.842;4.386;2022-09-09T16:51:19;6.35;;;1.80;;
22525;SDS011;11429;50.842;4.386;2022-09-09T16:53:45;4.65;;;1.75;;
22525;SDS011;11429;50.842;4.386;2022-09-09T16:56:13;5.03;;;2.13;;
22525;SDS011;11429;50.842;4.386;2022-09-09T16:58:43;4.05;;;2.10;;
22525;SDS011;11429;50.842;4.386;2022-09-09T17:01:17;4.73;;;2.10;;
22525;SDS011;11429;50.842;4.386;2022-09-09T17:03:43;9.73;;;2.25;;
22525;SDS011;11429;50.842;4.386;2022-09-09T17:06:13;6.88;;;2.50;;
22525;SDS011;11429;50.842;4.386;2022-09-09T17:08:40;6.55;;;2.53;;
22525;SDS011;11429;50.842;4.386;2022-09-09T17:11:16;7.40;;;3.08;;
22525;SDS011;11429;50.842;4.386;2022-09-09T17:13:43;6.60;;;2.42;;
22525;SDS011;11429;50.842;4.386;2022-09-09T17:16:14;5.65;;;2.15;;
22525;SDS011;11429;50.842;4.386;2022-09-09T17:18:41;6.13;;;3.17;;
22525;SDS011;11429;50.842;4.386;2022-09-09T17:21:09;6.28;;;1.98;;
22525;SDS011;11429;50.842;4.386;2022-09-09T17:23:37;6.10;;;1.83;;
22525;SDS011;11429;50.842;4.386;2022-09-09T17:26:04;5.18;;;1.90;;
22525;SDS011;11429;50.842;4.386;2022-09-09T17:28:37;6.13;;;2.15;;
22525;SDS011;11429;50.842;4.386;2022-09-09T17:31:05;6.97;;;1.80;;